Time;durP1;ratioP1;P1;durP2;ratioP2;P2;SDS_P1;SDS_P2;PMS_P1;PMS_P2;Temp;Humidity;BMP_temperature;BMP_pressure;BME280_temperature;BME280_humidity;BME280_pressure;Samples;Min_cycle;Max_cycle;Signal;HPM_P1;HPM_P2
2022/11/15 00:00:59;;;;;;;11.95;8.45;;;12.80;87.40;;;;;;10982299;32;20178;-75
2022/11/15 00:07:23;;;;;;;18.35;12.45;;;12.70;87.50;;;;;;10982040;32;20014;-75
2022/11/15 00:13:44;;;;;;;16.37;10.73;;;12.80;87.50;;;;;;10980826;32;20085;-75
2022/11/15 00:20:04;;;;;;;19.40;14.80;;;12.90;87.10;;;;;;10976647;27;20041;-74
2022/11/15 00:26:26;;;;;;;15.15;11.18;;;12.80;87.30;;;;;;11018175;32;20029;-75
2022/11/15 00:32:47;;;;;;;15.68;12.82;;;12.80;87.10;;;;;;11019345;32;20035;-75
2022/11/15 00:39:07;;;;;;;12.65;11.20;;;12.90;87.10;;;;;;11018993;32;20018;-75
2022/11/15 00:45:38;;;;;;;23.65;16.35;;;13.00;86.90;;;;;;11018832;32;20017;-75
2022/11/15 00:51:58;;;;;;;14.18;10.20;;;13.00;87.10;;;;;;11018585;32;20053;-75
2022/11/15 00:58:18;;;;;;;14.93;11.20;;;13.10;87.00;;;;;;11006732;32;20311;-75
2022/11/15 01:04:39;;;;;;;18.62;12.77;;;12.90;86.80;;;;;;11018105;32;20026;-75
2022/11/15 01:11:10;;;;;;;12.90;10.05;;;12.70;87.00;;;;;;11018089;32;20029;-75
2022/11/15 01:17:31;;;;;;;13.02;11.10;;;12.70;87.00;;;;;;11017899;32;20026;-73
2022/11/15 01:23:56;;;;;;;14.05;11.05;;;12.60;87.00;;;;;;11017816;32;20045;-73
2022/11/15 01:30:16;;;;;;;15.80;10.80;;;12.70;87.00;;;;;;11017946;32;20060;-73
2022/11/15 01:36:36;;;;;;;13.98;10.85;;;12.80;86.70;;;;;;11017621;32;19998;-75
2022/11/15 01:42:57;;;;;;;18.92;15.27;;;12.70;86.60;;;;;;11017632;32;20032;-75
2022/11/15 01:49:21;;;;;;;16.27;10.50;;;12.60;86.50;;;;;;11018809;32;20018;-75
2022/11/15 01:55:41;;;;;;;14.77;10.27;;;12.70;86.40;;;;;;11017146;32;20019;-75
2022/11/15 02:02:02;;;;;;;11.70;8.75;;;12.70;86.10;;;;;;11017152;32;20041;-75
2022/11/15 02:08:22;;;;;;;11.32;7.47;;;12.40;86.00;;;;;;11016865;32;20026;-75
2022/11/15 02:14:48;;;;;;;13.55;8.23;;;12.20;86.40;;;;;;11016924;32;20010;-75
2022/11/15 02:21:45;;;;;;;9.45;6.65;;;12.20;86.20;;;;;;11016700;32;20023;-75
2022/11/15 02:28:32;;;;;;;24.63;17.87;;;11.90;86.40;;;;;;11016665;32;20010;-75
2022/11/15 02:35:08;;;;;;;14.07;10.95;;;11.70;86.70;;;;;;11005021;32;20045;-74
2022/11/15 02:41:47;;;;;;;16.52;11.85;;;11.70;86.90;;;;;;11023440;32;20049;-73
2022/11/15 02:48:08;;;;;;;14.45;11.40;;;11.90;86.70;;;;;;11023342;32;20018;-73
2022/11/15 02:54:31;;;;;;;15.70;11.38;;;12.10;86.40;;;;;;11023187;32;20029;-74
2022/11/15 03:01:03;;;;;;;11.57;8.30;;;12.00;86.30;;;;;;11019677;32;20394;-73
2022/11/15 03:07:39;;;;;;;15.60;11.68;;;12.10;86.30;;;;;;11022742;32;20011;-73
2022/11/15 03:14:21;;;;;;;16.80;11.98;;;12.00;86.50;;;;;;11006386;32;20044;-74
2022/11/15 03:20:43;;;;;;;21.62;14.23;;;12.00;86.40;;;;;;11021787;32;20037;-75
2022/11/15 03:27:06;;;;;;;12.13;8.45;;;12.10;86.60;;;;;;11021416;32;20021;-75
2022/11/15 03:33:27;;;;;;;14.43;9.05;;;12.00;86.20;;;;;;11021611;32;20014;-75
2022/11/15 03:39:47;;;;;;;19.42;9.50;;;11.80;86.60;;;;;;11021152;32;20026;-76
2022/11/15 03:46:13;;;;;;;19.02;13.80;;;11.90;86.50;;;;;;11021003;32;20006;-75
2022/11/15 03:52:34;;;;;;;16.33;10.48;;;11.60;86.60;;;;;;11009215;32;20023;-75
2022/11/15 03:58:54;;;;;;;11.70;9.60;;;11.70;86.40;;;;;;11020376;32;20064;-75
2022/11/15 04:05:14;;;;;;;17.48;12.30;;;11.60;86.30;;;;;;11020203;32;20066;-75
2022/11/15 04:11:35;;;;;;;18.77;13.55;;;11.50;86.20;;;;;;11017748;32;20057;-75
2022/11/15 04:17:56;;;;;;;15.63;11.70;;;11.70;86.10;;;;;;11019811;32;20355;-75
2022/11/15 04:24:17;;;;;;;15.02;10.65;;;11.70;86.20;;;;;;11007866;32;20014;-75
2022/11/15 04:30:37;;;;;;;12.88;9.20;;;11.60;86.10;;;;;;11020440;32;20030;-75
2022/11/15 04:37:12;;;;;;;11.55;7.97;;;11.50;86.00;;;;;;11019220;32;20398;-75
2022/11/15 04:43:32;;;;;;;10.70;7.35;;;11.30;85.90;;;;;;11018855;32;20323;-76
2022/11/15 04:49:53;;;;;;;15.45;10.55;;;11.10;86.30;;;;;;11018688;32;20044;-75
2022/11/15 04:56:14;;;;;;;13.00;9.15;;;11.00;86.40;;;;;;11018583;32;20096;-75
2022/11/15 05:09:21;;;;;;;14.15;9.93;;;10.80;86.70;;;;;;10901452;32;20023;-75
2022/11/15 05:15:43;;;;;;;14.45;9.80;;;10.90;86.50;;;;;;10900426;32;20011;-75
2022/11/15 05:22:03;;;;;;;15.65;12.25;;;10.80;86.20;;;;;;10900198;32;20035;-75
2022/11/15 05:28:23;;;;;;;17.27;11.15;;;10.70;86.40;;;;;;10900051;32;20038;-75
2022/11/15 05:34:44;;;;;;;17.05;10.75;;;10.80;86.20;;;;;;10900077;32;20011;-75
2022/11/15 05:41:05;;;;;;;14.85;10.15;;;10.70;86.20;;;;;;10889346;32;20050;-73
2022/11/15 05:47:27;;;;;;;16.55;10.32;;;10.70;86.00;;;;;;11017445;32;20377;-73
2022/11/15 05:53:48;;;;;;;8.82;6.72;;;10.50;86.10;;;;;;11017406;32;20011;-73
2022/11/15 06:00:09;;;;;;;15.30;12.18;;;10.50;86.20;;;;;;11005605;32;20014;-73
2022/11/15 06:06:49;;;;;;;13.70;8.43;;;10.60;86.50;;;;;;11015018;32;20018;-73
2022/11/15 06:13:10;;;;;;;15.98;12.90;;;11.10;85.70;;;;;;11020313;32;20022;-73
2022/11/15 06:19:32;;;;;;;14.95;11.38;;;11.10;85.40;;;;;;11024165;32;20015;-73
2022/11/15 06:25:53;;;;;;;12.20;10.43;;;11.30;85.00;;;;;;11024112;32;20022;-73
2022/11/15 06:32:13;;;;;;;16.12;11.82;;;11.30;84.70;;;;;;11023823;32;20338;-74
2022/11/15 06:38:34;;;;;;;14.45;11.43;;;10.90;85.00;;;;;;11019333;32;20026;-73
2022/11/15 06:44:54;;;;;;;12.60;9.07;;;10.60;85.20;;;;;;11023454;32;20315;-73
2022/11/15 06:51:14;;;;;;;20.25;14.43;;;10.70;85.70;;;;;;11022947;32;20057;-74
2022/11/15 06:57:34;;;;;;;18.02;12.40;;;10.60;84.90;;;;;;11022697;32;20014;-75
2022/11/15 07:03:54;;;;;;;14.27;9.95;;;10.20;85.40;;;;;;11019321;32;20292;-74
2022/11/15 07:10:41;;;;;;;10.27;8.25;;;10.40;85.00;;;;;;11022581;32;20056;-74
2022/11/15 07:17:04;;;;;;;10.35;7.40;;;10.50;85.10;;;;;;10987492;32;20425;-74
2022/11/15 07:23:24;;;;;;;11.35;8.50;;;10.50;85.30;;;;;;10982680;32;20041;-73
2022/11/15 07:29:45;;;;;;;13.93;9.00;;;10.50;85.10;;;;;;10983508;32;20023;-73
2022/11/15 07:36:06;;;;;;;14.68;9.75;;;10.60;85.10;;;;;;10971888;32;20042;-76
2022/11/15 07:49:05;;;;;;;20.67;15.50;;;10.70;84.70;;;;;;10982890;32;20046;-77
2022/11/15 07:55:29;;;;;;;15.40;12.82;;;10.50;84.90;;;;;;10981960;32;20034;-77
2022/11/15 08:01:50;;;;;;;14.90;10.38;;;10.50;84.90;;;;;;10982362;32;20379;-77
2022/11/15 08:08:16;;;;;;;12.27;9.57;;;10.30;84.80;;;;;;10982198;32;20076;-76
2022/11/15 08:14:36;;;;;;;11.60;8.88;;;10.50;85.10;;;;;;10981720;32;20076;-77
2022/11/15 08:21:00;;;;;;;9.43;7.15;;;10.80;85.20;;;;;;10590453;26;12740819;-77
2022/11/15 08:27:20;;;;;;;12.02;9.73;;;11.10;84.60;;;;;;10903271;32;20018;-74
2022/11/15 08:33:41;;;;;;;11.40;7.75;;;10.80;84.70;;;;;;10901123;32;20031;-75
2022/11/15 08:40:01;;;;;;;14.13;7.90;;;10.60;85.10;;;;;;10901796;32;20317;-75
2022/11/15 08:46:21;;;;;;;14.20;11.85;;;10.70;85.20;;;;;;10898511;32;20034;-76
2022/11/15 08:52:41;;;;;;;11.35;9.05;;;10.80;85.30;;;;;;10903010;32;20019;-75
2022/11/15 08:59:01;;;;;;;13.10;10.70;;;10.90;85.50;;;;;;10943322;32;20023;-74
2022/11/15 09:05:22;;;;;;;9.05;6.90;;;11.00;85.30;;;;;;10941965;32;20019;-74
2022/11/15 09:11:42;;;;;;;10.90;8.02;;;11.00;85.60;;;;;;10942196;32;20030;-76
2022/11/15 09:18:16;;;;;;;12.45;9.73;;;11.00;85.70;;;;;;10942114;32;20015;-76
2022/11/15 09:24:36;;;;;;;13.13;9.45;;;11.20;86.20;;;;;;10970302;32;20304;-76
2022/11/15 09:31:05;;;;;;;10.80;8.13;;;11.20;85.60;;;;;;10968185;32;20019;-76
2022/11/15 09:37:27;;;;;;;13.27;9.57;;;11.20;86.00;;;;;;10976742;32;20042;-75
2022/11/15 09:44:06;;;;;;;11.88;8.55;;;11.20;86.10;;;;;;10979195;32;20015;-75
2022/11/15 09:50:38;;;;;;;11.00;7.28;;;11.20;86.30;;;;;;10987003;32;20077;-76
2022/11/15 09:56:44;;;;;;;11.12;6.87;;;11.50;86.30;;;;;;10986696;32;20049;-75
2022/11/15 10:03:08;;;;;;;10.85;7.95;;;11.50;86.10;;;;;;10982488;32;20023;-75
2022/11/15 10:09:19;;;;;;;12.35;9.05;;;11.50;86.10;;;;;;10987391;32;20394;-75
2022/11/15 10:15:22;;;;;;;11.20;7.62;;;11.50;86.40;;;;;;10985854;32;20054;-75
2022/11/15 10:22:27;;;;;;;11.10;7.83;;;11.70;86.60;;;;;;10985885;32;20027;-75
2022/11/15 10:28:30;;;;;;;12.93;6.77;;;11.70;86.30;;;;;;10868075;32;20026;-76
2022/11/15 10:34:36;;;;;;;11.70;9.38;;;11.70;86.50;;;;;;10947711;32;20019;-76
2022/11/15 10:41:07;;;;;;;12.27;8.02;;;11.70;86.70;;;;;;10940786;32;20062;-75
2022/11/15 10:47:30;;;;;;;13.43;9.35;;;11.70;86.60;;;;;;10947232;32;20050;-74
2022/11/15 10:53:45;;;;;;;14.45;8.85;;;11.80;87.00;;;;;;10946954;32;20053;-75
2022/11/15 10:59:52;;;;;;;13.80;10.13;;;12.20;87.30;;;;;;10946000;32;20350;-75
2022/11/15 11:06:13;;;;;;;12.70;9.88;;;12.20;86.90;;;;;;10946591;32;20023;-75
2022/11/15 11:12:29;;;;;;;21.08;18.10;;;12.10;87.00;;;;;;10928838;32;20520;-76
2022/11/15 11:18:41;;;;;;;12.30;8.35;;;12.10;87.20;;;;;;10928394;32;20061;-75
2022/11/15 11:25:13;;;;;;;14.07;8.70;;;12.00;87.10;;;;;;10945782;32;20049;-75
2022/11/15 11:31:52;;;;;;;18.45;13.10;;;12.00;87.40;;;;;;10755479;33;20367;-75
2022/11/15 11:38:22;;;;;;;16.45;12.82;;;12.20;87.50;;;;;;10791485;32;20028;-76
2022/11/15 11:44:24;;;;;;;16.87;13.40;;;12.30;87.20;;;;;;10780237;33;20055;-75
2022/11/15 11:50:27;;;;;;;16.58;11.05;;;12.20;87.40;;;;;;10791817;33;20031;-76
2022/11/15 11:56:34;;;;;;;30.85;18.02;;;12.20;87.00;;;;;;10791681;33;20032;-76
2022/11/15 12:02:43;;;;;;;16.02;11.95;;;12.20;87.60;;;;;;10791050;33;20459;-76
2022/11/15 12:09:20;;;;;;;14.75;11.80;;;12.30;87.30;;;;;;10974811;32;20030;-75
2022/11/15 12:15:27;;;;;;;13.90;10.07;;;12.30;87.30;;;;;;10981474;32;20056;-75
2022/11/15 12:21:52;;;;;;;16.92;12.73;;;12.30;87.50;;;;;;10981566;32;20049;-76
2022/11/15 12:28:02;;;;;;;17.55;12.40;;;12.30;87.40;;;;;;10977306;32;20026;-76
2022/11/15 12:34:16;;;;;;;15.35;11.52;;;12.40;87.10;;;;;;10980803;32;20054;-75
2022/11/15 12:40:38;;;;;;;13.65;10.15;;;12.40;87.50;;;;;;10980094;32;20026;-75
2022/11/15 12:46:40;;;;;;;20.55;14.57;;;12.50;87.50;;;;;;10980225;32;20030;-75
2022/11/15 12:53:20;;;;;;;15.75;11.38;;;12.50;87.50;;;;;;10980520;32;20041;-75
2022/11/15 12:59:43;;;;;;;;;;;12.50;87.60;;;;;;10974932;32;20035;-75
2022/11/15 13:05:58;;;;;;;13.35;10.30;;;12.40;87.60;;;;;;10979934;32;19980;-75
2022/11/15 13:12:27;;;;;;;18.45;12.30;;;12.30;87.80;;;;;;10979718;32;20019;-75
2022/11/15 13:18:29;;;;;;;14.30;10.65;;;12.50;87.80;;;;;;10979447;32;20322;-75
2022/11/15 13:24:32;;;;;;;15.05;10.65;;;12.80;87.70;;;;;;10978776;32;20038;-75
2022/11/15 13:30:34;;;;;;;15.57;10.80;;;13.00;87.50;;;;;;10979364;32;20023;-75
2022/11/15 13:36:36;;;;;;;17.87;12.20;;;12.90;87.50;;;;;;10979318;32;20390;-74
2022/11/15 13:42:38;;;;;;;14.07;9.35;;;12.90;87.80;;;;;;10979166;32;20018;-75
2022/11/15 13:48:41;;;;;;;13.62;9.85;;;12.90;87.70;;;;;;10978955;32;20383;-75
2022/11/15 13:54:55;;;;;;;14.40;9.05;;;12.80;87.80;;;;;;10978826;32;20041;-75
2022/11/15 14:01:05;;;;;;;13.82;8.95;;;12.70;87.90;;;;;;10978688;32;20042;-74
2022/11/15 14:07:20;;;;;;;12.48;8.95;;;12.70;88.10;;;;;;10978407;32;20041;-74
2022/11/15 14:13:31;;;;;;;15.95;9.55;;;12.70;88.10;;;;;;10978803;32;20037;-74
2022/11/15 14:19:36;;;;;;;17.30;13.05;;;12.80;88.10;;;;;;10978572;32;20019;-74
2022/11/15 14:25:55;;;;;;;15.13;11.02;;;12.90;88.00;;;;;;10978371;32;20041;-74
2022/11/15 14:32:26;;;;;;;14.68;12.07;;;13.00;87.80;;;;;;10980760;32;20045;-74
2022/11/15 14:38:28;;;;;;;13.43;10.20;;;13.20;87.80;;;;;;10982875;32;20027;-74
2022/11/15 14:44:30;;;;;;;14.70;11.27;;;13.20;87.90;;;;;;10981171;32;20027;-74
2022/11/15 14:50:34;;;;;;;15.35;11.18;;;13.20;87.90;;;;;;10984615;32;20041;-73
2022/11/15 14:56:36;;;;;;;13.18;9.75;;;13.00;88.10;;;;;;10970775;32;20433;-73
2022/11/15 15:02:38;;;;;;;15.30;10.25;;;13.00;88.20;;;;;;10978975;32;20049;-73
2022/11/15 15:08:40;;;;;;;13.38;8.10;;;12.90;88.10;;;;;;10959689;32;20057;-73
2022/11/15 15:14:44;;;;;;;11.77;8.63;;;12.80;88.30;;;;;;10955510;32;20327;-73
2022/11/15 15:20:54;;;;;;;14.95;9.65;;;12.90;88.30;;;;;;10967867;32;20377;-74
2022/11/15 15:26:56;;;;;;;12.93;9.35;;;12.80;88.10;;;;;;10981840;32;20068;-73
2022/11/15 15:32:58;;;;;;;15.20;10.75;;;12.70;88.30;;;;;;10983534;32;20027;-73
2022/11/15 15:39:01;;;;;;;17.27;12.45;;;12.80;88.50;;;;;;10980130;32;20405;-73
2022/11/15 15:45:04;;;;;;;19.48;12.82;;;12.80;88.30;;;;;;10982800;32;20049;-73
2022/11/15 15:51:06;;;;;;;25.20;12.98;;;12.80;88.30;;;;;;10983108;32;20050;-73
2022/11/15 15:57:12;;;;;;;23.55;18.80;;;13.00;88.20;;;;;;10982423;32;20035;-73
2022/11/15 16:03:14;;;;;;;15.63;11.18;;;13.00;88.10;;;;;;10982346;32;20011;-73
2022/11/15 16:09:59;;;;;;;14.65;10.02;;;13.00;88.00;;;;;;10982168;32;20022;-72
2022/11/15 16:16:01;;;;;;;20.80;11.77;;;13.00;88.00;;;;;;10981807;32;20061;-73
2022/11/15 16:22:03;;;;;;;13.52;9.60;;;12.90;87.90;;;;;;11010872;27;20030;-72
2022/11/15 16:28:20;;;;;;;16.20;11.00;;;12.90;87.90;;;;;;11057844;32;20022;-73
2022/11/15 16:34:41;;;;;;;14.50;10.27;;;12.80;87.90;;;;;;11057854;32;20295;-73
2022/11/15 16:40:43;;;;;;;14.13;9.55;;;12.80;88.00;;;;;;11056081;32;20026;-73
2022/11/15 16:46:50;;;;;;;18.23;11.38;;;12.70;88.00;;;;;;11057255;32;20010;-73
2022/11/15 16:52:55;;;;;;;17.05;10.38;;;12.50;88.20;;;;;;11054770;32;20444;-73
2022/11/15 16:58:59;;;;;;;14.68;10.18;;;12.50;88.40;;;;;;11056132;32;20033;-73
2022/11/15 17:05:01;;;;;;;11.23;7.87;;;12.50;88.30;;;;;;11056893;32;20022;-73
2022/11/15 17:11:07;;;;;;;13.57;8.63;;;12.50;88.40;;;;;;11052019;32;20411;-73
2022/11/15 17:17:09;;;;;;;15.25;10.75;;;12.40;88.40;;;;;;11016118;32;20060;-73
2022/11/15 17:23:13;;;;;;;16.10;10.80;;;12.30;88.40;;;;;;11017913;32;20045;-73
2022/11/15 17:29:15;;;;;;;14.70;10.65;;;12.30;88.40;;;;;;11004048;32;20064;-73
2022/11/15 17:35:17;;;;;;;14.90;10.80;;;12.30;88.40;;;;;;11017633;32;20037;-73
2022/11/15 17:41:21;;;;;;;16.05;11.77;;;12.30;88.40;;;;;;11017426;32;20026;-74
2022/11/15 17:47:30;;;;;;;18.83;12.07;;;12.40;88.40;;;;;;11017207;32;20386;-74
2022/11/15 17:53:36;;;;;;;21.90;12.68;;;12.50;88.40;;;;;;11016460;32;20030;-74
2022/11/15 17:59:38;;;;;;;14.57;9.75;;;12.40;88.20;;;;;;11003343;32;20346;-74
2022/11/15 18:05:42;;;;;;;20.45;13.43;;;12.30;88.30;;;;;;11017056;32;20019;-74
2022/11/15 18:11:49;;;;;;;23.77;14.60;;;12.50;88.50;;;;;;11024644;32;20057;-74
2022/11/15 18:17:51;;;;;;;26.55;20.33;;;12.50;88.30;;;;;;11024209;32;20030;-74
2022/11/15 18:23:58;;;;;;;20.50;15.52;;;12.70;88.30;;;;;;11006052;32;20044;-74
2022/11/15 18:30:00;;;;;;;19.52;14.52;;;12.80;88.20;;;;;;11023802;32;20060;-74
2022/11/15 18:36:06;;;;;;;27.42;18.12;;;12.80;88.00;;;;;;11025877;32;20456;-74
2022/11/15 18:42:25;;;;;;;28.55;18.15;;;12.80;88.00;;;;;;11061890;32;20052;-74
2022/11/15 18:48:36;;;;;;;23.15;14.85;;;12.80;88.00;;;;;;11061234;32;20420;-74
2022/11/15 18:55:02;;;;;;;25.30;16.17;;;12.80;88.00;;;;;;11061193;32;20056;-74
2022/11/15 19:01:07;;;;;;;25.52;20.42;;;12.80;88.00;;;;;;11060658;32;20037;-74
2022/11/15 19:07:20;;;;;;;21.95;16.70;;;12.80;87.90;;;;;;11060387;32;20044;-74
2022/11/15 19:13:25;;;;;;;28.42;19.00;;;12.80;87.90;;;;;;11060388;32;20030;-73
2022/11/15 19:19:27;;;;;;;20.88;14.38;;;12.80;88.00;;;;;;11045889;32;20087;-74
2022/11/15 19:25:29;;;;;;;22.70;15.93;;;12.80;88.00;;;;;;11060204;32;20022;-74
2022/11/15 19:31:32;;;;;;;20.33;15.00;;;12.70;88.20;;;;;;11060016;32;20444;-74
2022/11/15 19:37:34;;;;;;;16.80;13.60;;;12.70;88.30;;;;;;11059745;32;20330;-74
2022/11/15 19:43:37;;;;;;;21.55;13.13;;;12.60;88.30;;;;;;11059461;32;20061;-74
2022/11/15 19:49:39;;;;;;;24.70;16.77;;;12.60;88.30;;;;;;11059019;32;20030;-74
2022/11/15 19:55:42;;;;;;;22.83;16.85;;;12.50;88.40;;;;;;11057927;32;20030;-74
2022/11/15 20:01:44;;;;;;;18.23;13.20;;;12.70;88.40;;;;;;11058698;32;20021;-74
2022/11/15 20:07:49;;;;;;;18.20;14.77;;;12.80;88.30;;;;;;11058347;32;20026;-74
2022/11/15 20:14:00;;;;;;;18.90;12.05;;;12.80;88.10;;;;;;11058352;32;20052;-74
2022/11/15 20:20:03;;;;;;;17.37;11.75;;;12.70;88.10;;;;;;11058032;32;20029;-74
2022/11/15 20:26:07;;;;;;;19.35;13.27;;;12.60;88.10;;;;;;11057898;32;20382;-74
2022/11/15 20:32:10;;;;;;;17.98;14.02;;;12.60;88.30;;;;;;11043369;32;20349;-73
2022/11/15 20:38:33;;;;;;;14.87;11.27;;;12.70;88.40;;;;;;11057563;32;20018;-75
2022/11/15 20:44:35;;;;;;;18.73;13.65;;;12.70;88.50;;;;;;11057411;32;20026;-75
2022/11/15 20:50:47;;;;;;;19.48;13.77;;;12.70;88.60;;;;;;11057134;32;20065;-73
2022/11/15 20:56:50;;;;;;;17.60;14.68;;;12.70;88.80;;;;;;11056827;32;20052;-72
2022/11/15 21:02:52;;;;;;;16.55;13.65;;;12.70;88.90;;;;;;11056569;32;20057;-73
2022/11/15 21:15:16;;;;;;;17.85;12.13;;;12.50;89.20;;;;;;11017521;32;20061;-73
2022/11/15 21:21:34;;;;;;;21.20;14.45;;;12.60;89.20;;;;;;11017721;32;20030;-73
2022/11/15 21:27:36;;;;;;;17.83;13.13;;;12.60;89.20;;;;;;11017410;32;20045;-73
2022/11/15 21:33:38;;;;;;;17.45;12.20;;;12.70;89.10;;;;;;11017545;32;20053;-73
2022/11/15 21:39:41;;;;;;;13.68;9.82;;;12.70;89.00;;;;;;11017325;32;20030;-73
2022/11/15 21:45:54;;;;;;;13.85;8.77;;;12.70;88.80;;;;;;11016961;32;20026;-73
2022/11/15 21:51:56;;;;;;;15.70;10.68;;;12.70;88.90;;;;;;11017082;32;20022;-73
2022/11/15 21:57:58;;;;;;;12.23;9.90;;;12.70;88.90;;;;;;11017097;32;20053;-74
2022/11/15 22:04:01;;;;;;;15.80;11.73;;;12.80;88.90;;;;;;11013506;32;20022;-73
2022/11/15 22:10:03;;;;;;;19.37;13.23;;;12.70;88.80;;;;;;11003391;32;20030;-73
2022/11/15 22:16:07;;;;;;;13.65;9.88;;;12.70;89.00;;;;;;11016949;32;20022;-74
2022/11/15 22:22:09;;;;;;;15.77;10.88;;;12.80;89.00;;;;;;11016741;32;20069;-73
2022/11/15 22:28:11;;;;;;;20.95;11.75;;;12.80;88.90;;;;;;11016664;32;20044;-73
2022/11/15 22:34:13;;;;;;;12.30;10.07;;;12.80;88.90;;;;;;11016199;32;20022;-74
2022/11/15 22:40:17;;;;;;;13.90;9.57;;;12.80;88.80;;;;;;11012017;32;20027;-74
2022/11/15 22:46:20;;;;;;;15.38;9.80;;;12.80;88.80;;;;;;11016402;32;20308;-74
2022/11/15 22:52:22;;;;;;;14.50;9.70;;;12.70;88.80;;;;;;11016364;32;20049;-73
2022/11/15 22:58:26;;;;;;;14.57;9.40;;;12.80;88.90;;;;;;11022829;32;20424;-73
2022/11/15 23:04:29;;;;;;;12.13;8.25;;;12.80;88.90;;;;;;11022753;32;20045;-74
2022/11/15 23:16:53;;;;;;;11.75;7.45;;;12.80;89.00;;;;;;11022244;32;20270;-74
2022/11/15 23:22:55;;;;;;;17.95;13.05;;;12.80;89.00;;;;;;11022030;32;20048;-73
2022/11/15 23:29:08;;;;;;;13.20;8.38;;;12.80;89.00;;;;;;11021894;32;20045;-73
2022/11/15 23:35:10;;;;;;;12.82;8.35;;;12.80;88.90;;;;;;11007936;32;20018;-73
2022/11/15 23:41:12;;;;;;;12.80;8.75;;;12.80;89.00;;;;;;11021272;32;20026;-73
2022/11/15 23:47:15;;;;;;;17.08;10.40;;;12.80;89.10;;;;;;11021189;32;20022;-73
2022/11/15 23:53:17;;;;;;;11.65;8.82;;;12.80;89.10;;;;;;11018598;32;20475;-73
2022/11/15 23:59:20;;;;;;;14.52;10.13;;;12.80;89.10;;;;;;11020631;32;20068;-73
